Time;durP1;ratioP1;P1;durP2;ratioP2;P2;SDS_P1;SDS_P2;PMS_P1;PMS_P2;Temp;Humidity;BMP_temperature;BMP_pressure;BME280_temperature;BME280_humidity;BME280_pressure;Samples;Min_cycle;Max_cycle;Signal;HPM_P1;HPM_P2
2022/05/16 00:00:43;;;;;;;10.80;3.58;;;;;;;18.63;52.25;101229.38;6434753;23;20212;-71
2022/05/16 00:03:15;;;;;;;11.13;3.47;;;;;;;18.60;52.25;101227.09;6435818;23;20036;-71
2022/05/16 00:05:46;;;;;;;10.27;3.03;;;;;;;18.62;52.19;101234.88;6434731;23;20004;-71
2022/05/16 00:08:18;;;;;;;8.20;3.17;;;;;;;18.53;52.44;101231.44;6435611;23;20068;-71
2022/05/16 00:10:49;;;;;;;10.30;3.88;;;;;;;18.62;52.38;101217.13;6436677;23;20016;-71
2022/05/16 00:13:21;;;;;;;9.43;3.25;;;;;;;18.48;52.75;101228.47;6434454;23;20272;-70
2022/05/16 00:15:53;;;;;;;8.02;3.72;;;;;;;18.42;53.22;101234.47;6434039;23;20008;-71
2022/05/16 00:18:24;;;;;;;11.07;3.65;;;;;;;18.41;53.51;101223.03;6436228;23;20082;-71
2022/05/16 00:20:55;;;;;;;8.40;3.25;;;;;;;18.39;53.24;101213.59;6435928;23;20437;-71
2022/05/16 00:23:26;;;;;;;12.98;4.03;;;;;;;18.30;53.91;101219.94;6435063;23;20005;-71
2022/05/16 00:25:58;;;;;;;10.32;3.33;;;;;;;18.23;54.15;101214.47;6436170;23;20384;-71
2022/05/16 00:28:29;;;;;;;9.57;3.35;;;;;;;18.22;54.25;101213.66;6435532;23;20064;-71
2022/05/16 00:31:00;;;;;;;9.07;3.70;;;;;;;18.20;54.50;101210.34;6433508;23;20088;-70
2022/05/16 00:33:32;;;;;;;8.07;3.08;;;;;;;18.18;54.58;101212.34;6435530;23;20001;-71
2022/05/16 00:36:03;;;;;;;9.13;3.10;;;;;;;18.12;54.40;101218.31;6434602;23;20004;-71
2022/05/16 00:38:35;;;;;;;9.25;3.13;;;;;;;18.09;53.94;101213.34;6436118;23;20480;-71
2022/05/16 00:41:06;;;;;;;8.30;3.28;;;;;;;18.05;55.44;101206.75;6434550;23;20016;-71
2022/05/16 00:43:48;;;;;;;14.85;4.53;;;;;;;18.17;54.55;101212.50;6435527;23;20021;-71
2022/05/16 00:46:21;;;;;;;10.55;3.25;;;;;;;18.07;55.04;101218.00;6434410;23;20047;-71
2022/05/16 00:48:52;;;;;;;;;;;;;;;18.62;52.19;101213.63;6435800;23;20001;-71
2022/05/16 00:51:24;;;;;;;6.67;2.80;;;;;;;17.96;55.88;101210.41;6435062;23;19919;-71
2022/05/16 00:53:58;;;;;;;6.65;3.08;;;;;;;17.92;56.27;101211.75;6434860;23;20013;-70
2022/05/16 00:56:31;;;;;;;8.48;2.90;;;;;;;17.86;56.33;101209.78;6435468;23;20009;-71
2022/05/16 00:59:03;;;;;;;10.65;3.45;;;;;;;17.84;56.56;101198.50;6434942;23;20009;-70
2022/05/16 01:07:31;;;;;;;7.90;3.42;;;;;;;18.02;56.25;101193.00;6433668;23;20040;-71
2022/05/16 01:10:06;;;;;;;9.40;3.45;;;;;;;17.67;57.85;101182.59;6435200;23;20024;-71
2022/05/16 01:12:41;;;;;;;10.15;3.67;;;;;;;17.74;57.29;101191.53;6434549;23;20043;-70
2022/05/16 01:15:26;;;;;;;7.47;3.10;;;;;;;17.75;57.50;101197.69;6434236;23;20027;-70
2022/05/16 01:17:57;;;;;;;9.45;3.40;;;;;;;17.60;57.78;101194.88;6435108;23;19997;-70
2022/05/16 01:20:53;;;;;;;7.95;3.75;;;;;;;17.87;56.71;101203.47;6435367;23;20345;-71
2022/05/16 01:23:27;;;;;;;9.57;3.60;;;;;;;17.55;58.37;101210.44;6435976;23;20120;-71
2022/05/16 01:26:00;;;;;;;8.85;3.65;;;;;;;17.52;58.52;101210.78;6434579;23;20033;-71
2022/05/16 01:28:31;;;;;;;10.35;3.50;;;;;;;17.59;58.31;101208.28;6435548;23;20430;-70
2022/05/16 01:31:03;;;;;;;9.23;4.18;;;;;;;17.43;58.87;101206.47;6432570;23;20016;-72
2022/05/16 01:33:34;;;;;;;18.00;4.32;;;;;;;17.39;58.74;101197.22;6434828;23;20467;-71
2022/05/16 01:36:05;;;;;;;7.60;3.45;;;;;;;17.40;59.61;101198.88;6434629;23;20012;-71
2022/05/16 01:38:37;;;;;;;6.90;3.80;;;;;;;17.33;60.12;101195.22;6435636;23;20009;-72
2022/05/16 01:41:09;;;;;;;7.87;3.80;;;;;;;17.33;59.81;101195.22;6435536;23;20009;-71
2022/05/16 01:44:00;;;;;;;11.82;3.95;;;;;;;17.58;58.79;101193.38;6434495;23;20403;-71
2022/05/16 01:46:34;;;;;;;7.93;3.25;;;;;;;17.31;60.59;101186.59;6434078;23;20407;-70
2022/05/16 01:49:08;;;;;;;7.70;3.53;;;;;;;17.29;60.91;101184.13;6408487;23;20059;-71
2022/05/16 01:51:40;;;;;;;9.55;3.33;;;;;;;17.21;60.81;101190.25;6434270;23;20015;-71
2022/05/16 01:54:11;;;;;;;7.72;4.00;;;;;;;17.24;61.17;101181.16;6434754;23;20464;-71
2022/05/16 01:56:44;;;;;;;7.68;3.40;;;;;;;17.35;60.71;101172.88;6434993;23;20033;-71
2022/05/16 01:59:15;;;;;;;9.60;4.07;;;;;;;17.34;60.47;101167.72;6433057;23;20390;-71
2022/05/16 02:01:46;;;;;;;10.93;4.10;;;;;;;17.34;60.50;101159.78;6433769;23;20040;-71
2022/05/16 02:04:18;;;;;;;10.32;3.75;;;;;;;17.35;61.07;101167.59;6433423;23;20433;-72
2022/05/16 02:06:51;;;;;;;9.60;3.47;;;;;;;17.38;60.70;101166.41;6433650;23;20393;-70
2022/05/16 02:09:23;;;;;;;;;;;;;;;17.84;58.65;101162.25;6435828;23;20488;-71
2022/05/16 02:11:54;;;;;;;8.23;3.70;;;;;;;17.37;61.24;101168.22;6434697;23;19912;-71
2022/05/16 02:14:25;;;;;;;11.93;4.13;;;;;;;17.37;61.53;101159.47;6431884;23;20037;-70
2022/05/16 02:16:57;;;;;;;11.32;3.78;;;;;;;17.34;61.81;101149.19;6434872;23;20389;-70
2022/05/16 02:19:28;;;;;;;6.30;3.35;;;;;;;17.36;61.52;101165.75;6435114;23;20462;-71
2022/05/16 02:24:49;;;;;;;10.05;3.60;;;;;;;17.31;61.52;101153.00;6434568;23;20091;-70
2022/05/16 02:27:20;;;;;;;8.70;3.45;;;;;;;17.34;62.05;101150.03;6435143;23;20441;-71
2022/05/16 02:29:52;;;;;;;8.45;3.55;;;;;;;17.23;62.47;101139.75;6432358;23;20009;-72
2022/05/16 02:32:24;;;;;;;7.78;3.30;;;;;;;17.28;62.27;101145.41;6434518;23;20349;-70
2022/05/16 02:34:55;;;;;;;8.85;3.30;;;;;;;17.30;62.29;101139.94;6435140;23;20059;-71
2022/05/16 02:37:26;;;;;;;7.40;3.78;;;;;;;17.25;62.58;101135.97;6407891;23;20075;-71
2022/05/16 02:39:58;;;;;;;9.07;3.53;;;;;;;17.26;62.53;101142.09;6407437;23;20433;-71
2022/05/16 02:42:30;;;;;;;6.18;3.05;;;;;;;17.21;63.11;101139.13;6434713;23;20005;-71
2022/05/16 02:45:03;;;;;;;6.50;2.92;;;;;;;17.26;62.66;101132.31;6433917;23;20009;-71
2022/05/16 02:47:35;;;;;;;8.13;3.35;;;;;;;17.25;62.84;101135.97;6407939;23;20016;-71
2022/05/16 02:50:06;;;;;;;10.40;3.58;;;;;;;17.20;63.25;101127.69;6435651;23;20005;-71
2022/05/16 02:52:38;;;;;;;6.68;3.60;;;;;;;17.22;62.52;101131.00;6433963;23;20761;-71
2022/05/16 02:55:10;;;;;;;8.93;2.90;;;;;;;17.23;62.91;101127.34;6434566;23;20099;-71
2022/05/16 02:57:41;;;;;;;6.20;3.03;;;;;;;17.26;62.69;101119.06;6433246;23;20015;-71
2022/05/16 03:00:16;;;;;;;10.73;3.40;;;;;;;17.21;63.15;101116.13;6433105;23;20100;-71
2022/05/16 03:02:47;;;;;;;7.05;3.08;;;;;;;17.11;63.54;101109.31;6434791;23;20578;-72
2022/05/16 03:05:18;;;;;;;9.32;3.17;;;;;;;17.17;63.15;101117.44;6434945;23;20005;-71
2022/05/16 03:07:50;;;;;;;5.65;2.85;;;;;;;17.15;63.41;101110.66;6434216;23;20029;-71
2022/05/16 03:10:22;;;;;;;6.65;3.10;;;;;;;17.08;64.13;101107.84;6433772;23;20009;-70
2022/05/16 03:12:54;;;;;;;7.95;3.20;;;;;;;17.06;64.05;101109.84;6434660;23;20444;-71
2022/05/16 03:15:25;;;;;;;6.55;3.15;;;;;;;17.05;64.02;101120.56;6432958;23;20015;-71
2022/05/16 03:17:57;;;;;;;9.80;3.65;;;;;;;17.01;64.45;101112.16;6434280;23;20001;-70
2022/05/16 03:20:28;;;;;;;7.13;3.28;;;;;;;16.96;64.42;101117.94;6435473;23;20012;-71
2022/05/16 03:22:59;;;;;;;7.70;3.13;;;;;;;17.06;64.08;101111.66;6433544;23;20067;-70
2022/05/16 03:25:31;;;;;;;8.52;3.30;;;;;;;17.01;64.41;101106.88;6435027;23;20083;-71
2022/05/16 03:28:02;;;;;;;6.07;3.40;;;;;;;16.93;64.57;101118.28;6436784;23;20080;-71
2022/05/16 03:30:35;;;;;;;8.95;3.10;;;;;;;16.93;64.89;101112.13;6434917;23;20004;-70
2022/05/16 03:33:06;;;;;;;9.32;3.33;;;;;;;16.95;64.59;101120.75;6435992;23;20036;-70
2022/05/16 03:35:37;;;;;;;9.50;3.33;;;;;;;16.90;64.96;101115.97;6436620;23;20495;-71
2022/05/16 03:40:41;;;;;;;10.25;3.38;;;;;;;16.91;65.36;101116.78;6436393;23;20031;-71
2022/05/16 03:41:00;;;;;;;9.25;3.15;;;;;;;16.72;65.88;101107.31;6435455;23;20441;-70
2022/05/16 03:43:35;;;;;;;9.70;2.95;;;;;;;16.81;66.45;101113.47;6409743;23;20027;-71
2022/05/16 03:46:07;;;;;;;6.65;3.22;;;;;;;16.67;66.68;101114.91;6408271;23;20016;-71
2022/05/16 03:48:39;;;;;;;6.78;3.17;;;;;;;16.70;66.22;101118.03;6436355;23;20009;-70
2022/05/16 03:51:13;;;;;;;7.40;3.42;;;;;;;16.74;65.82;101110.63;6410106;23;20066;-70
2022/05/16 03:53:47;;;;;;;6.22;3.20;;;;;;;16.69;66.64;101110.28;6436346;23;20074;-71
2022/05/16 03:56:23;;;;;;;8.98;3.17;;;;;;;16.75;66.91;101122.91;6435952;23;20341;-70
2022/05/16 04:01:28;;;;;;;5.53;3.03;;;;;;;16.66;67.77;101108.78;6397251;23;20214;-69
2022/05/16 04:03:59;;;;;;;7.93;3.17;;;;;;;16.57;67.83;101095.72;6403869;23;20335;-68
2022/05/16 04:06:34;;;;;;;8.07;3.00;;;;;;;16.62;68.09;101098.69;6434197;23;20012;-69
2022/05/16 04:09:05;;;;;;;5.75;2.80;;;;;;;16.58;67.71;101095.53;6434095;23;20432;-69
2022/05/16 04:11:36;;;;;;;6.90;3.63;;;;;;;16.65;67.37;101114.25;6435029;23;20009;-68
2022/05/16 04:14:08;;;;;;;8.63;3.05;;;;;;;16.60;68.19;101104.16;6431508;23;20008;-69
2022/05/16 04:16:39;;;;;;;7.45;3.45;;;;;;;16.61;68.34;101115.56;6434550;23;20068;-69
2022/05/16 04:19:11;;;;;;;6.47;2.75;;;;;;;16.67;67.79;101121.03;6434641;23;20005;-68
2022/05/16 04:21:42;;;;;;;9.52;3.25;;;;;;;16.62;68.35;101125.13;6433553;23;20092;-69
2022/05/16 04:24:13;;;;;;;6.30;2.80;;;;;;;16.64;68.36;101118.72;6434032;23;20060;-69
2022/05/16 04:26:45;;;;;;;7.18;3.45;;;;;;;16.67;68.60;101123.69;6432234;23;20443;-70
2022/05/16 04:29:16;;;;;;;7.72;3.58;;;;;;;16.59;68.65;101097.19;6432658;23;20024;-69
2022/05/16 04:31:50;;;;;;;9.40;3.80;;;;;;;16.75;68.25;101114.97;6432523;23;20005;-69
2022/05/16 04:34:21;;;;;;;11.57;3.95;;;;;;;16.82;68.31;101123.91;6434391;23;20448;-69
2022/05/16 04:36:53;;;;;;;7.13;3.50;;;;;;;16.89;67.20;101106.34;6431595;23;20012;-69
2022/05/16 04:39:24;;;;;;;7.25;3.60;;;;;;;16.98;66.99;101118.59;6435473;23;20005;-69
2022/05/16 04:44:45;;;;;;;10.68;3.40;;;;;;;17.04;66.58;101114.44;6431625;23;20009;-70
2022/05/16 04:47:16;;;;;;;9.30;3.70;;;;;;;17.11;66.38;101118.09;6434099;23;20420;-69
2022/05/16 04:49:48;;;;;;;10.20;3.60;;;;;;;17.15;66.49;101118.59;6435035;23;20008;-69
2022/05/16 04:52:19;;;;;;;9.48;3.70;;;;;;;17.20;66.23;101124.22;6436028;23;20041;-69
2022/05/16 04:54:51;;;;;;;7.50;3.53;;;;;;;17.25;65.77;101120.06;6435562;23;20016;-69
2022/05/16 04:57:23;;;;;;;9.73;3.90;;;;;;;17.36;65.75;101131.34;6434206;23;20017;-69
2022/05/16 04:59:55;;;;;;;6.97;3.70;;;;;;;17.45;64.89;101120.53;6433555;23;20021;-69
2022/05/16 05:02:26;;;;;;;6.30;3.65;;;;;;;17.56;65.23;101134.44;6435307;23;20031;-69
2022/05/16 05:04:59;;;;;;;6.70;3.80;;;;;;;17.62;64.35;101125.81;6435432;23;20059;-68
2022/05/16 05:07:30;;;;;;;6.22;3.45;;;;;;;17.65;64.61;101126.31;6434850;23;20044;-69
2022/05/16 05:15:42;;;;;;;5.20;3.33;;;;;;;17.99;63.35;101135.81;6434937;23;20032;-68
2022/05/16 05:18:14;;;;;;;6.13;3.63;;;;;;;18.09;63.90;101133.81;6407680;23;20052;-69
2022/05/16 05:20:45;;;;;;;8.85;3.55;;;;;;;18.18;62.68;101132.78;6435137;23;20318;-68
2022/05/16 05:23:17;;;;;;;6.43;3.22;;;;;;;18.23;62.40;101130.44;6435642;23;20198;-68
2022/05/16 05:25:48;;;;;;;7.63;3.33;;;;;;;18.27;63.38;101135.41;6434951;23;20013;-69
2022/05/16 05:28:19;;;;;;;9.52;2.97;;;;;;;18.36;62.12;101137.81;6434537;23;20075;-69
2022/05/16 05:30:51;;;;;;;8.27;3.13;;;;;;;18.42;62.18;101123.03;6429876;23;20081;-70
2022/05/16 05:33:22;;;;;;;12.05;3.30;;;;;;;18.47;61.96;101115.38;6434662;23;20001;-73
2022/05/16 05:35:54;;;;;;;8.43;3.63;;;;;;;18.54;61.57;101116.34;6433853;23;20448;-71
2022/05/16 05:38:25;;;;;;;10.40;3.13;;;;;;;18.66;61.75;101130.84;6435026;23;20029;-69
2022/05/16 05:40:56;;;;;;;9.48;3.17;;;;;;;18.80;60.52;101133.78;6435299;23;20009;-72
2022/05/16 05:43:28;;;;;;;6.55;3.00;;;;;;;18.91;60.01;101139.50;6435756;23;20009;-71
2022/05/16 05:46:03;;;;;;;7.30;2.70;;;;;;;19.01;59.52;101135.75;6432732;23;19996;-72
2022/05/16 05:48:34;;;;;;;6.43;3.20;;;;;;;19.03;59.47;101145.22;6434792;23;20392;-72
2022/05/16 05:51:05;;;;;;;5.57;2.93;;;;;;;19.13;59.46;101145.81;6436062;23;20016;-71
2022/05/16 05:53:37;;;;;;;8.10;2.95;;;;;;;19.18;59.36;101150.56;6430614;23;20075;-71
2022/05/16 05:56:10;;;;;;;9.32;2.90;;;;;;;19.24;60.16;101149.03;6429472;23;20013;-72
2022/05/16 05:58:42;;;;;;;6.18;3.13;;;;;;;19.27;59.96;101157.47;6432669;23;20004;-73
2022/05/16 06:01:13;;;;;;;8.93;3.50;;;;;;;19.29;59.30;101146.66;6431521;23;20044;-71
2022/05/16 06:03:45;;;;;;;8.50;4.05;;;;;;;19.41;59.46;101154.00;6429549;23;20028;-71
2022/05/16 06:06:16;;;;;;;7.40;2.80;;;;;;;19.45;58.30;101160.63;6432197;23;20385;-71
2022/05/16 06:08:48;;;;;;;6.15;3.20;;;;;;;19.49;58.14;101155.78;6432460;23;20313;-71
2022/05/16 06:11:20;;;;;;;8.15;3.08;;;;;;;19.55;58.56;101157.72;6434340;23;20063;-71
2022/05/16 06:13:51;;;;;;;6.30;3.00;;;;;;;19.56;57.92;101167.34;6434719;23;20020;-71
2022/05/16 06:16:22;;;;;;;7.43;3.05;;;;;;;19.69;59.02;101166.72;6406857;23;20005;-70
2022/05/16 06:18:54;;;;;;;10.32;3.13;;;;;;;19.83;58.59;101175.72;6434247;23;20013;-71
2022/05/16 06:21:25;;;;;;;4.90;2.60;;;;;;;19.89;58.28;101177.66;6434074;23;20054;-71
2022/05/16 06:23:56;;;;;;;6.53;2.97;;;;;;;19.97;59.25;101169.59;6433822;23;20004;-72
2022/05/16 06:26:28;;;;;;;6.28;2.83;;;;;;;20.00;58.01;101179.88;6434841;23;20012;-72
2022/05/16 06:29:00;;;;;;;5.57;2.60;;;;;;;20.02;58.23;101183.16;6433600;23;20009;-72
2022/05/16 06:31:31;;;;;;;16.07;3.00;;;;;;;20.03;58.12;101178.66;6431660;23;20334;-71
2022/05/16 06:34:02;;;;;;;7.53;3.10;;;;;;;20.05;57.80;101176.66;6434139;23;20008;-71
2022/05/16 06:36:34;;;;;;;8.65;2.97;;;;;;;20.05;58.12;101177.47;6434162;23;20081;-71
2022/05/16 06:39:05;;;;;;;9.30;2.90;;;;;;;20.07;57.92;101188.75;6433426;23;20009;-72
2022/05/16 06:41:36;;;;;;;9.55;3.10;;;;;;;20.04;58.05;101181.16;6432094;23;20017;-71
2022/05/16 06:44:11;;;;;;;9.03;3.03;;;;;;;20.10;58.00;101183.06;6433909;23;20065;-73
2022/05/16 06:46:44;;;;;;;12.32;3.47;;;;;;;20.13;58.35;101190.66;6407093;23;20017;-72
2022/05/16 06:49:15;;;;;;;9.30;2.92;;;;;;;20.18;58.90;101190.94;6433306;23;20032;-71
2022/05/16 06:51:46;;;;;;;10.03;3.13;;;;;;;20.28;58.60;101188.00;6433633;23;20009;-72
2022/05/16 06:54:18;;;;;;;7.67;2.83;;;;;;;20.30;58.12;101187.81;6432084;23;20050;-71
2022/05/16 06:56:49;;;;;;;7.47;3.05;;;;;;;20.33;58.87;101192.75;6433506;23;20001;-71
2022/05/16 06:59:20;;;;;;;6.87;3.03;;;;;;;20.36;58.26;101185.22;6406966;23;20077;-71
2022/05/16 07:01:52;;;;;;;10.30;3.13;;;;;;;20.48;58.85;101196.22;6437248;23;20009;-71
2022/05/16 07:04:23;;;;;;;9.03;3.33;;;;;;;20.58;58.64;101199.47;6436091;23;20041;-70
2022/05/16 07:06:54;;;;;;;7.93;2.70;;;;;;;20.67;58.73;101200.16;6436641;23;20008;-71
2022/05/16 07:09:25;;;;;;;10.77;3.33;;;;;;;20.75;59.58;101200.03;6435079;23;20329;-71
2022/05/16 07:11:57;;;;;;;7.30;3.37;;;;;;;20.81;58.45;101198.47;6435674;23;20306;-71
2022/05/16 07:14:28;;;;;;;9.60;3.07;;;;;;;20.93;58.98;101210.28;6435196;23;20328;-71
2022/05/16 07:16:59;;;;;;;8.43;2.87;;;;;;;21.04;58.14;101215.09;6435719;23;20080;-71
2022/05/16 07:19:34;;;;;;;9.30;2.93;;;;;;;21.09;58.00;101204.69;6435273;23;20004;-71
2022/05/16 07:22:15;;;;;;;8.70;3.47;;;;;;;21.34;58.19;101213.16;6435394;23;20016;-72
2022/05/16 07:24:46;;;;;;;6.28;2.95;;;;;;;21.38;57.63;101205.59;6409167;23;20009;-73
2022/05/16 07:30:10;;;;;;;10.75;2.90;;;;;;;21.68;57.64;101213.44;6435466;23;20087;-72
2022/05/16 07:32:42;;;;;;;;;;;;;;;22.16;56.55;101210.88;6436161;23;20345;-71
2022/05/16 07:35:18;;;;;;;9.57;2.53;;;;;;;21.99;57.30;101213.00;6434599;23;19911;-71
2022/05/16 07:37:49;;;;;;;12.43;2.60;;;;;;;22.01;56.75;101209.13;6435336;23;20330;-68
2022/05/16 07:40:25;;;;;;;11.17;2.70;;;;;;;22.32;56.78;101213.22;6434115;23;20452;-69
2022/05/16 07:42:57;;;;;;;16.92;3.47;;;;;;;22.34;56.19;101221.84;6436046;23;20009;-69
2022/05/16 07:45:28;;;;;;;14.13;3.20;;;;;;;22.41;56.62;101219.22;6434682;23;20008;-70
2022/05/16 07:48:03;;;;;;;16.07;3.70;;;;;;;22.41;56.06;101216.53;6435178;23;20036;-70
2022/05/16 07:50:36;;;;;;;7.70;2.53;;;;;;;22.49;57.05;101217.19;6407869;23;20016;-69
2022/05/16 07:53:12;;;;;;;7.95;2.85;;;;;;;22.53;57.49;101223.78;6435509;23;20360;-70
2022/05/16 07:55:50;;;;;;;10.57;2.92;;;;;;;22.65;56.30;101231.22;6435003;23;20011;-69
2022/05/16 07:58:23;;;;;;;5.32;2.45;;;;;;;22.63;55.82;101231.41;6433989;23;20016;-70
2022/05/16 08:00:56;;;;;;;8.98;2.85;;;;;;;22.66;56.39;101235.53;6435166;23;20021;-70
2022/05/16 08:03:29;;;;;;;7.35;2.67;;;;;;;22.93;55.48;101231.13;6434833;23;20321;-69
2022/05/16 08:06:01;;;;;;;8.32;2.95;;;;;;;23.13;55.05;101233.84;6433327;23;20009;-69
2022/05/16 08:11:22;;;;;;;10.57;2.13;;;;;;;23.21;55.13;101222.94;6435602;23;20017;-70
2022/05/16 08:13:53;;;;;;;13.47;2.97;;;;;;;23.49;53.88;101230.78;6434702;23;20076;-69
2022/05/16 08:16:24;;;;;;;9.97;2.53;;;;;;;23.63;54.20;101221.72;6433577;23;20016;-70
2022/05/16 08:18:56;;;;;;;6.80;2.40;;;;;;;23.83;52.37;101220.88;6433631;23;20040;-70
2022/05/16 08:21:27;;;;;;;10.03;2.43;;;;;;;24.18;51.41;101232.16;6433248;23;20019;-70
2022/05/16 08:24:01;;;;;;;6.37;2.00;;;;;;;24.44;50.16;101242.81;6434339;23;20009;-70
2022/05/16 08:26:32;;;;;;;6.35;2.97;;;;;;;24.58;49.52;101240.88;6434390;23;20001;-71
2022/05/16 08:29:04;;;;;;;9.87;2.77;;;;;;;24.90;50.75;101243.63;6435162;23;20005;-70
2022/05/16 08:31:35;;;;;;;7.37;2.30;;;;;;;25.05;48.71;101241.47;6435302;23;20063;-71
2022/05/16 08:34:07;;;;;;;6.33;1.83;;;;;;;25.27;48.12;101244.66;6432253;23;20432;-70
2022/05/16 08:42:33;;;;;;;8.70;2.45;;;;;;;25.89;46.97;101242.06;6433800;23;20016;-70
2022/05/16 08:45:15;;;;;;;6.93;2.20;;;;;;;26.04;45.95;101249.78;6435328;23;20028;-70
2022/05/16 08:47:54;;;;;;;6.13;2.53;;;;;;;26.24;45.85;101234.25;6432032;23;20004;-72
2022/05/16 08:50:47;;;;;;;4.47;2.15;;;;;;;26.49;45.31;101234.19;6432034;23;20005;-71
2022/05/16 08:53:24;;;;;;;;;;;;;;;26.90;44.56;101236.13;6434605;23;20008;-70
2022/05/16 08:56:05;;;;;;;7.00;1.92;;;;;;;26.68;44.37;101243.03;6435256;23;20612;-70
2022/05/16 08:58:47;;;;;;;6.50;2.30;;;;;;;26.86;43.67;101245.69;6434765;23;20008;-70
2022/05/16 09:01:31;;;;;;;4.40;1.92;;;;;;;27.05;43.89;101240.22;6434974;23;20072;-70
2022/05/16 09:04:09;;;;;;;3.80;1.90;;;;;;;27.11;43.22;101236.66;6434138;23;20009;-70
2022/05/16 09:06:57;;;;;;;8.73;2.22;;;;;;;27.25;43.74;101239.97;6434132;23;20056;-71
2022/05/16 09:10:06;;;;;;;4.68;2.08;;;;;;;27.66;41.65;101241.78;6434646;23;20564;-73
2022/05/16 09:12:41;;;;;;;7.00;2.13;;;;;;;27.45;42.04;101242.34;6431549;23;20092;-71
2022/05/16 09:15:19;;;;;;;6.47;1.85;;;;;;;27.49;43.47;101243.50;6434792;23;20038;-71
2022/05/16 09:18:12;;;;;;;6.65;2.40;;;;;;;27.49;41.55;101248.91;6433633;23;20020;-70
2022/05/16 09:20:53;;;;;;;9.05;2.35;;;;;;;27.77;42.25;101250.91;6408103;23;20004;-70
2022/05/16 09:23:34;;;;;;;8.93;2.03;;;;;;;27.93;41.63;101235.94;6433724;23;20063;-70
2022/05/16 09:26:25;;;;;;;10.20;2.65;;;;;;;27.90;41.36;101234.53;6433502;23;20089;-69
2022/05/16 09:29:16;;;;;;;6.28;2.30;;;;;;;28.14;41.36;101241.50;6433449;23;20008;-72
2022/05/16 09:31:49;;;;;;;5.22;2.28;;;;;;;28.18;40.96;101252.63;6429277;23;20040;-70
2022/05/16 09:34:20;;;;;;;5.32;2.33;;;;;;;28.09;40.62;101248.69;6428962;23;20402;-68
2022/05/16 09:36:51;;;;;;;4.83;1.93;;;;;;;28.23;39.65;101233.91;6427743;23;20089;-69
2022/05/16 09:39:25;;;;;;;5.33;2.43;;;;;;;28.46;40.54;101257.31;6431656;23;20012;-69
2022/05/16 09:42:03;;;;;;;5.90;2.30;;;;;;;28.47;41.75;101255.41;6433480;23;20000;-70
2022/05/16 09:44:46;;;;;;;8.38;2.72;;;;;;;28.76;40.14;101257.06;6434510;23;20356;-69
2022/05/16 09:47:36;;;;;;;5.38;2.17;;;;;;;28.64;38.49;101267.09;6434704;23;20012;-70
2022/05/16 09:50:07;;;;;;;4.82;2.42;;;;;;;28.61;39.44;101267.56;6431672;23;20454;-72
2022/05/16 09:52:45;;;;;;;3.70;2.30;;;;;;;29.03;39.18;101268.13;6433637;23;20075;-71
2022/05/16 09:55:42;;;;;;;5.63;2.70;;;;;;;28.94;39.24;101282.19;6434243;23;20419;-69
2022/05/16 09:58:19;;;;;;;8.45;2.70;;;;;;;29.00;38.38;101292.06;6431839;23;20005;-70
2022/05/16 10:00:56;;;;;;;3.92;2.65;;;;;;;29.07;38.93;101288.16;6404037;23;20025;-70
2022/05/16 10:03:32;;;;;;;11.68;3.50;;;;;;;28.86;38.98;101297.69;6397387;23;20344;-70
2022/05/16 10:06:10;;;;;;;9.73;2.60;;;;;;;28.75;39.12;101312.06;6401509;23;20010;-70
2022/05/16 10:08:46;;;;;;;9.85;3.08;;;;;;;28.72;39.70;101301.75;6403882;23;20013;-70
2022/05/16 10:11:23;;;;;;;9.07;2.95;;;;;;;28.47;40.22;101303.94;6428995;23;20331;-71
2022/05/16 10:13:55;;;;;;;6.53;2.80;;;;;;;28.21;40.43;101313.31;6432867;23;20067;-71
2022/05/16 10:16:31;;;;;;;6.38;2.65;;;;;;;27.84;41.56;101322.47;6434636;23;20387;-71
2022/05/16 10:19:15;;;;;;;8.88;2.70;;;;;;;27.62;42.37;101324.88;6434823;23;20032;-71
2022/05/16 10:22:04;;;;;;;7.85;2.50;;;;;;;27.28;44.31;101339.06;6431770;23;20009;-71
2022/05/16 10:24:42;;;;;;;9.10;2.70;;;;;;;27.01;46.74;101346.63;6432621;23;20001;-71
2022/05/16 10:27:15;;;;;;;8.20;3.30;;;;;;;26.27;51.79;101365.41;6434488;23;20005;-70
2022/05/16 10:29:51;;;;;;;9.38;2.80;;;;;;;25.84;54.54;101376.97;6434027;23;20438;-70
2022/05/16 10:35:34;;;;;;;8.27;2.97;;;;;;;25.29;57.88;101379.34;6432849;23;20008;-71
2022/05/16 10:38:20;;;;;;;8.40;3.03;;;;;;;25.18;62.50;101382.69;6432935;23;20314;-70
2022/05/16 10:40:57;;;;;;;8.25;3.42;;;;;;;24.98;64.85;101382.75;6433178;23;20001;-71
2022/05/16 10:43:47;;;;;;;6.53;2.92;;;;;;;25.38;65.04;101390.63;6432298;23;20296;-70
2022/05/16 10:46:24;;;;;;;5.82;2.97;;;;;;;25.31;64.98;101392.53;6434199;23;20032;-71
2022/05/16 10:49:09;;;;;;;4.95;2.90;;;;;;;25.90;62.88;101399.41;6432433;23;20009;-70
2022/05/16 10:51:49;;;;;;;5.50;3.40;;;;;;;26.10;61.18;101401.94;6434194;23;20008;-71
2022/05/16 10:54:23;;;;;;;10.05;3.50;;;;;;;26.09;60.75;101395.72;6428118;23;20318;-71
2022/05/16 10:57:16;;;;;;;6.00;3.20;;;;;;;26.29;57.98;101389.38;6428915;23;20039;-71
2022/05/16 10:59:57;;;;;;;6.28;3.63;;;;;;;26.34;57.54;101403.78;6437098;23;20020;-71
2022/05/16 11:02:34;;;;;;;5.63;3.20;;;;;;;26.34;56.41;101406.47;6460330;23;20459;-71
2022/05/16 11:05:18;;;;;;;7.75;3.38;;;;;;;26.17;55.39;101408.06;6461817;23;20028;-71
2022/05/16 11:08:22;;;;;;;5.63;2.88;;;;;;;26.02;54.74;101410.25;6462536;23;20001;-71
2022/05/16 11:11:39;;;;;;;5.80;3.13;;;;;;;26.14;54.51;101412.03;6413478;23;20024;-71
2022/05/16 11:14:23;;;;;;;9.73;3.70;;;;;;;25.79;54.55;101414.34;6454895;23;20138;-71
2022/05/16 11:17:05;;;;;;;7.88;3.70;;;;;;;25.54;55.61;101418.84;6462990;23;20013;-71
2022/05/16 11:19:49;;;;;;;7.53;3.70;;;;;;;25.63;56.31;101412.97;6462368;23;20016;-71
2022/05/16 11:22:39;;;;;;;8.07;3.35;;;;;;;25.67;56.22;101422.25;6463760;23;20050;-71
2022/05/16 11:25:31;;;;;;;10.40;4.00;;;;;;;25.71;55.57;101415.41;6459759;22;20428;-72
2022/05/16 11:28:24;;;;;;;7.40;4.25;;;;;;;25.60;56.80;101413.41;6436147;23;20013;-71
2022/05/16 11:31:08;;;;;;;11.60;4.50;;;;;;;25.44;60.37;101419.28;6462847;23;20009;-71
2022/05/16 11:33:47;;;;;;;6.72;4.57;;;;;;;25.21;61.19;101417.13;6463003;23;20071;-71
2022/05/16 11:36:39;;;;;;;10.20;5.05;;;;;;;25.41;61.76;101425.88;6461168;23;20380;-71
2022/05/16 11:39:40;;;;;;;11.30;4.75;;;;;;;25.55;59.44;101428.53;6463376;23;20031;-71
2022/05/16 11:42:28;;;;;;;13.25;4.35;;;;;;;25.58;58.21;101433.47;6463294;23;20005;-71
2022/05/16 11:45:17;;;;;;;9.68;3.97;;;;;;;25.53;59.66;101427.91;6462670;23;20031;-71
2022/05/16 11:47:52;;;;;;;9.32;4.20;;;;;;;25.31;58.65;101425.53;6465212;23;20000;-72
2022/05/16 11:50:39;;;;;;;9.13;4.93;;;;;;;25.13;57.69;101433.47;6462539;23;20088;-72
2022/05/16 11:53:32;;;;;;;9.05;5.13;;;;;;;25.26;56.78;101435.25;6464294;23;20023;-73
2022/05/16 12:02:08;;;;;;;10.00;5.18;;;;;;;24.69;62.54;101462.59;6465081;23;20020;-73
2022/05/16 12:04:44;;;;;;;9.03;6.63;;;;;;;24.52;64.20;101462.22;6467155;23;20004;-71
2022/05/16 12:07:39;;;;;;;9.68;6.82;;;;;;;24.42;66.68;101464.47;6464613;23;20000;-73
2022/05/16 12:10:10;;;;;;;11.73;7.80;;;;;;;23.93;67.30;101465.66;6465571;23;20004;-70
2022/05/16 12:12:45;;;;;;;11.57;7.93;;;;;;;23.89;69.00;101472.44;6466855;23;20008;-74
2022/05/16 12:15:16;;;;;;;9.90;7.10;;;;;;;23.95;69.04;101474.31;6466622;23;20008;-73
2022/05/16 12:17:59;;;;;;;11.77;7.47;;;;;;;24.21;69.11;101478.88;6466535;23;20142;-72
2022/05/16 12:20:42;;;;;;;12.32;8.55;;;;;;;24.08;69.71;101492.22;6465434;23;20044;-71
2022/05/16 12:23:47;;;;;;;10.27;7.90;;;;;;;24.00;69.29;101482.53;6465414;23;20348;-74
2022/05/16 12:26:27;;;;;;;11.10;7.63;;;;;;;23.82;70.80;101500.19;6465943;23;20016;-72
2022/05/16 12:29:07;;;;;;;11.18;8.43;;;;;;;23.49;72.46;101500.91;6466224;23;20015;-70
2022/05/16 12:31:44;;;;;;;11.23;7.95;;;;;;;23.49;73.59;101512.41;6466824;23;20005;-71
2022/05/16 12:34:34;;;;;;;10.38;8.93;;;;;;;23.37;74.30;101503.28;6465947;23;20080;-72
2022/05/16 12:37:09;;;;;;;9.25;8.27;;;;;;;23.16;74.58;101519.44;6465368;23;20009;-72
2022/05/16 12:40:04;;;;;;;8.02;7.25;;;;;;;23.41;72.74;101520.63;6464905;23;20043;-72
2022/05/16 12:42:47;;;;;;;10.00;7.93;;;;;;;23.15;73.73;101520.47;6465557;23;20008;-72